Time;durP1;ratioP1;P1;durP2;ratioP2;P2;SDS_P1;SDS_P2;PMS_P1;PMS_P2;Temp;Humidity;BMP_temperature;BMP_pressure;BME280_temperature;BME280_humidity;BME280_pressure;Samples;Min_cycle;Max_cycle;Signal;HPM_P1;HPM_P2
2022/10/01 00:01:18;;;;;;;13.40;10.20;;;12.30;99.90;;;;;;5063850;28;20795;-72
2022/10/01 00:03:46;;;;;;;16.83;10.80;;;12.30;99.90;;;;;;5061222;28;20367;-72
2022/10/01 00:06:19;;;;;;;12.93;10.03;;;12.30;99.90;;;;;;5063864;28;20350;-72
2022/10/01 00:08:48;;;;;;;12.57;10.13;;;12.20;99.90;;;;;;5061991;28;20207;-72
2022/10/01 00:11:22;;;;;;;14.37;10.27;;;12.20;99.90;;;;;;5064000;28;20208;-73
2022/10/01 00:13:50;;;;;;;12.80;10.03;;;12.20;99.90;;;;;;5062305;28;20299;-71
2022/10/01 00:16:20;;;;;;;13.27;10.20;;;12.20;99.90;;;;;;5062691;28;20239;-73
2022/10/01 00:18:48;;;;;;;13.20;10.80;;;12.20;99.90;;;;;;5061843;28;20228;-74
2022/10/01 00:21:20;;;;;;;13.97;11.23;;;12.10;99.90;;;;;;5065889;28;20214;-73
2022/10/01 00:23:56;;;;;;;13.97;11.07;;;12.00;99.90;;;;;;5063007;28;20240;-73
2022/10/01 00:26:26;;;;;;;15.23;11.53;;;11.90;99.90;;;;;;5066318;28;20204;-72
2022/10/01 00:28:59;;;;;;;16.43;11.33;;;12.00;99.90;;;;;;5044703;28;20204;-74
2022/10/01 00:31:27;;;;;;;16.60;12.33;;;12.00;99.90;;;;;;5065382;28;20220;-73
2022/10/01 00:33:58;;;;;;;13.73;11.27;;;11.90;99.90;;;;;;5064465;28;20223;-71
2022/10/01 00:36:25;;;;;;;14.37;11.23;;;11.90;99.90;;;;;;5041882;28;20352;-74
2022/10/01 00:38:52;;;;;;;17.20;11.93;;;11.90;99.90;;;;;;5044839;28;20327;-71
2022/10/01 00:41:19;;;;;;;14.97;11.80;;;11.80;99.90;;;;;;5038872;28;20235;-75
2022/10/01 00:43:53;;;;;;;13.90;11.13;;;11.80;99.90;;;;;;5044552;28;20257;-74
2022/10/01 00:46:23;;;;;;;20.00;12.30;;;11.80;99.90;;;;;;5044326;28;20701;-74
2022/10/01 00:49:15;;;;;;;18.80;11.90;;;11.80;99.90;;;;;;5044732;28;20213;-73
2022/10/01 00:51:46;;;;;;;16.77;12.97;;;11.80;99.90;;;;;;5040353;28;20697;-73
2022/10/01 00:54:18;;;;;;;15.57;11.93;;;11.80;99.90;;;;;;5040707;28;20674;-74
2022/10/01 00:56:46;;;;;;;14.83;11.70;;;11.80;99.90;;;;;;5044295;28;20323;-78
2022/10/01 00:59:15;;;;;;;16.17;12.37;;;11.80;99.90;;;;;;5039855;28;20202;-72
2022/10/01 01:01:43;;;;;;;15.10;11.43;;;11.80;99.90;;;;;;5045439;28;20620;-72
2022/10/01 01:04:16;;;;;;;12.83;10.47;;;11.70;99.90;;;;;;5041313;28;20256;-73
2022/10/01 01:06:57;;;;;;;16.80;11.53;;;11.80;99.90;;;;;;5043988;28;20641;-73
2022/10/01 01:09:34;;;;;;;14.13;11.17;;;11.70;99.90;;;;;;5041237;28;20346;-73
2022/10/01 01:12:23;;;;;;;16.03;12.03;;;11.70;99.90;;;;;;5041028;28;20241;-72
2022/10/01 01:15:14;;;;;;;15.33;11.77;;;11.60;99.90;;;;;;5034544;28;20221;-73
2022/10/01 01:17:53;;;;;;;15.53;11.33;;;11.60;99.90;;;;;;5040343;28;20935;-72
2022/10/01 01:20:45;;;;;;;17.80;10.97;;;11.70;99.90;;;;;;5040106;28;20205;-74
2022/10/01 01:23:14;;;;;;;16.10;10.77;;;11.70;99.90;;;;;;5040062;28;20213;-73
2022/10/01 01:25:50;;;;;;;15.20;10.80;;;11.60;99.90;;;;;;5044104;28;20350;-74
2022/10/01 01:28:31;;;;;;;17.03;11.40;;;11.80;99.90;;;;;;5037871;28;20375;-73
2022/10/01 01:31:03;;;;;;;14.43;10.63;;;11.70;99.90;;;;;;5038780;28;20290;-73
2022/10/01 01:33:34;;;;;;;13.97;10.67;;;11.60;99.90;;;;;;5026358;28;20200;-72
2022/10/01 01:36:06;;;;;;;12.50;10.57;;;11.70;99.90;;;;;;5041711;28;20240;-73
2022/10/01 01:38:39;;;;;;;16.60;11.63;;;11.60;99.90;;;;;;5059965;28;21411;-72
2022/10/01 01:41:08;;;;;;;15.97;10.97;;;11.60;99.90;;;;;;5060078;28;20278;-73
2022/10/01 01:43:41;;;;;;;13.53;10.37;;;11.70;99.90;;;;;;5047770;28;20326;-72
2022/10/01 01:46:10;;;;;;;17.10;10.50;;;11.70;99.90;;;;;;5040686;28;20223;-73
2022/10/01 01:48:40;;;;;;;16.47;11.27;;;11.60;99.90;;;;;;5063650;28;20209;-72
2022/10/01 01:51:15;;;;;;;14.13;10.53;;;11.70;99.90;;;;;;5061257;28;20212;-72
2022/10/01 01:53:42;;;;;;;15.00;10.93;;;11.70;99.90;;;;;;5055871;28;20231;-71
2022/10/01 01:56:10;;;;;;;12.83;10.00;;;11.60;99.90;;;;;;5061865;28;20215;-71
2022/10/01 01:58:38;;;;;;;13.87;10.00;;;11.70;99.90;;;;;;5060840;28;20669;-71
2022/10/01 02:01:05;;;;;;;11.60;8.67;;;11.70;99.90;;;;;;5060436;28;20277;-72
2022/10/01 02:03:33;;;;;;;13.97;9.77;;;11.70;99.90;;;;;;5060143;28;20224;-71
2022/10/01 02:06:16;;;;;;;12.27;9.20;;;11.70;99.90;;;;;;5058859;28;20208;-71
2022/10/01 02:09:10;;;;;;;11.07;8.33;;;11.70;99.90;;;;;;5062202;28;20657;-71
2022/10/01 02:11:45;;;;;;;10.07;8.17;;;11.70;99.90;;;;;;5055138;28;20205;-73
2022/10/01 02:14:39;;;;;;;12.67;8.37;;;11.70;99.90;;;;;;5049129;28;20204;-72
2022/10/01 02:17:42;;;;;;;9.83;7.80;;;11.70;99.90;;;;;;5061497;28;20224;-72
2022/10/01 02:20:24;;;;;;;8.80;7.20;;;11.70;99.90;;;;;;5060468;28;20690;-72
2022/10/01 02:23:03;;;;;;;10.50;7.73;;;11.70;99.90;;;;;;5047128;28;20299;-72
2022/10/01 02:25:36;;;;;;;10.03;7.97;;;11.70;99.90;;;;;;5059135;28;20639;-73
2022/10/01 02:28:09;;;;;;;10.53;7.67;;;11.80;99.90;;;;;;5057717;28;20216;-71
2022/10/01 02:30:38;;;;;;;11.50;7.80;;;11.80;99.90;;;;;;5065484;28;20598;-73
2022/10/01 02:33:08;;;;;;;9.10;7.03;;;11.80;99.90;;;;;;5059924;28;20224;-71
2022/10/01 02:35:41;;;;;;;11.67;7.27;;;11.80;99.90;;;;;;5060144;28;20215;-74
2022/10/01 02:38:14;;;;;;;9.03;7.07;;;11.80;99.90;;;;;;5060140;28;20240;-72
2022/10/01 02:40:43;;;;;;;6.50;5.80;;;11.80;99.90;;;;;;5064178;28;20820;-73
2022/10/01 02:43:20;;;;;;;6.57;5.50;;;11.80;99.90;;;;;;5063790;28;20236;-70
2022/10/01 02:45:54;;;;;;;6.83;5.37;;;11.80;99.90;;;;;;5040278;28;20566;-72
2022/10/01 02:48:21;;;;;;;7.17;5.20;;;11.80;99.90;;;;;;5041003;28;20222;-70
2022/10/01 02:50:53;;;;;;;7.10;5.77;;;11.80;99.90;;;;;;5058845;28;20213;-73
2022/10/01 02:53:20;;;;;;;6.20;5.30;;;11.80;99.90;;;;;;5045369;28;20251;-73
2022/10/01 02:55:48;;;;;;;6.43;5.17;;;11.90;99.90;;;;;;5062857;28;20205;-71
2022/10/01 02:58:18;;;;;;;6.23;5.03;;;11.90;99.90;;;;;;5064647;28;20324;-72
2022/10/01 03:00:45;;;;;;;5.47;4.37;;;11.90;99.90;;;;;;5062969;28;20260;-72
2022/10/01 03:03:11;;;;;;;5.73;4.43;;;11.90;99.90;;;;;;5067639;28;20262;-71
2022/10/01 03:05:38;;;;;;;4.50;4.10;;;11.90;99.90;;;;;;5051016;28;20768;-71
2022/10/01 03:08:05;;;;;;;4.63;3.73;;;11.90;99.90;;;;;;5068283;28;20303;-70
2022/10/01 03:10:33;;;;;;;6.93;4.30;;;11.90;99.90;;;;;;5067086;28;20208;-71
2022/10/01 03:13:00;;;;;;;4.17;3.77;;;11.90;99.90;;;;;;5063383;28;20292;-72
2022/10/01 03:15:28;;;;;;;3.67;3.30;;;11.90;99.90;;;;;;5064551;28;20223;-70
2022/10/01 03:17:55;;;;;;;3.40;3.10;;;11.80;99.90;;;;;;5065939;28;20231;-71
2022/10/01 03:20:22;;;;;;;3.73;3.40;;;11.90;99.90;;;;;;5060040;28;20243;-71
2022/10/01 03:22:49;;;;;;;4.30;3.37;;;11.90;99.90;;;;;;5063865;28;20215;-70
2022/10/01 03:25:22;;;;;;;3.43;2.87;;;11.90;99.90;;;;;;5063880;28;20241;-71
2022/10/01 03:27:52;;;;;;;2.97;2.70;;;11.90;99.90;;;;;;5062125;28;20209;-71
2022/10/01 03:30:21;;;;;;;4.67;3.10;;;11.90;99.90;;;;;;5062095;28;20228;-70
2022/10/01 03:32:48;;;;;;;4.10;2.90;;;11.90;99.90;;;;;;5059726;28;20253;-71
2022/10/01 03:35:20;;;;;;;4.53;2.93;;;11.90;99.90;;;;;;5063371;28;20239;-71
2022/10/01 03:37:47;;;;;;;3.47;2.73;;;11.90;99.90;;;;;;5062311;28;20326;-71
2022/10/01 03:40:14;;;;;;;3.10;2.80;;;11.90;99.90;;;;;;5046046;28;20209;-71
2022/10/01 03:42:41;;;;;;;4.40;3.03;;;11.90;99.90;;;;;;5063307;28;20204;-70
2022/10/01 03:45:08;;;;;;;3.40;3.03;;;12.00;99.90;;;;;;5065358;28;20232;-72
2022/10/01 03:47:35;;;;;;;3.17;2.87;;;12.00;99.90;;;;;;5060681;28;20303;-70
2022/10/01 03:50:03;;;;;;;3.23;2.93;;;12.00;99.90;;;;;;5049415;28;20265;-70
2022/10/01 03:52:30;;;;;;;3.70;3.40;;;12.00;99.90;;;;;;5055634;28;20263;-72
2022/10/01 03:54:56;;;;;;;4.03;3.67;;;12.00;99.90;;;;;;5063529;28;20223;-71
2022/10/01 03:57:23;;;;;;;4.07;3.77;;;11.90;99.90;;;;;;5051836;28;20200;-71
2022/10/01 03:59:50;;;;;;;3.97;3.50;;;12.00;99.90;;;;;;5066976;28;20210;-72
2022/10/01 04:02:17;;;;;;;3.80;3.37;;;12.00;99.90;;;;;;5059308;28;20229;-70
2022/10/01 04:04:44;;;;;;;3.93;3.57;;;12.00;99.90;;;;;;5061947;28;20232;-71
2022/10/01 04:07:11;;;;;;;3.70;3.40;;;12.10;99.90;;;;;;5059495;28;20262;-71
2022/10/01 04:09:38;;;;;;;5.20;4.30;;;12.00;99.90;;;;;;5061276;28;20316;-71
2022/10/01 04:12:04;;;;;;;4.37;3.90;;;12.10;99.90;;;;;;5044475;28;20693;-71
2022/10/01 04:14:31;;;;;;;4.60;3.97;;;12.10;99.90;;;;;;5060309;28;20209;-72
2022/10/01 04:16:58;;;;;;;6.03;4.40;;;12.10;99.90;;;;;;5060002;28;20263;-71
2022/10/01 04:19:25;;;;;;;4.70;4.20;;;12.10;99.90;;;;;;5062076;28;20207;-71
2022/10/01 04:21:53;;;;;;;4.67;3.97;;;12.10;99.90;;;;;;5042589;28;20268;-71
2022/10/01 04:24:20;;;;;;;5.10;3.90;;;12.10;99.90;;;;;;5066612;28;20228;-72
2022/10/01 04:26:50;;;;;;;4.87;4.33;;;12.10;99.90;;;;;;5062133;28;20223;-71
2022/10/01 04:29:17;;;;;;;5.60;5.10;;;12.20;99.90;;;;;;5062178;28;20211;-71
2022/10/01 04:31:44;;;;;;;5.87;4.70;;;12.10;99.90;;;;;;5045272;28;20669;-71
2022/10/01 04:34:11;;;;;;;5.83;5.00;;;12.20;99.90;;;;;;5046065;28;20243;-70
2022/10/01 04:36:37;;;;;;;5.27;4.77;;;12.20;99.90;;;;;;5040427;28;20279;-71
2022/10/01 04:39:07;;;;;;;5.67;5.03;;;12.30;99.90;;;;;;5043447;28;20222;-72
2022/10/01 04:41:33;;;;;;;5.80;5.30;;;12.30;99.90;;;;;;5047366;28;20193;-72
2022/10/01 04:44:01;;;;;;;6.37;5.70;;;12.30;99.90;;;;;;5044283;28;20316;-72
2022/10/01 04:46:31;;;;;;;6.30;5.70;;;12.40;99.90;;;;;;5043390;28;20225;-72
2022/10/01 04:48:59;;;;;;;10.00;5.80;;;12.30;99.90;;;;;;5036623;28;20862;-71
2022/10/01 04:51:26;;;;;;;6.43;5.83;;;12.40;99.90;;;;;;5044521;28;20619;-72
2022/10/01 04:53:54;;;;;;;8.03;5.90;;;12.40;99.90;;;;;;5043104;28;20355;-71
2022/10/01 04:56:21;;;;;;;6.23;5.63;;;12.40;99.90;;;;;;5039023;28;20221;-73
2022/10/01 04:58:48;;;;;;;6.87;6.17;;;12.40;99.90;;;;;;5041345;28;20197;-73
2022/10/01 05:01:14;;;;;;;6.70;5.43;;;12.40;99.90;;;;;;5044114;28;20310;-72
2022/10/01 05:03:57;;;;;;;7.83;6.87;;;12.50;99.90;;;;;;5041625;28;20205;-72
2022/10/01 05:06:24;;;;;;;7.83;6.67;;;12.50;99.90;;;;;;5043763;28;20244;-72
2022/10/01 05:08:51;;;;;;;8.07;7.27;;;12.50;99.90;;;;;;5045527;28;20201;-72
2022/10/01 05:11:18;;;;;;;8.23;7.17;;;12.50;99.90;;;;;;5043306;28;20639;-71
2022/10/01 05:13:45;;;;;;;8.17;6.97;;;12.60;99.90;;;;;;5037893;28;20220;-73
2022/10/01 05:16:12;;;;;;;11.50;7.70;;;12.60;99.90;;;;;;5043725;28;20923;-73
2022/10/01 05:18:39;;;;;;;8.70;7.80;;;12.60;99.90;;;;;;5035488;28;20211;-72
2022/10/01 05:21:07;;;;;;;8.40;7.60;;;12.60;99.90;;;;;;5041428;28;20224;-73
2022/10/01 05:23:34;;;;;;;9.60;8.63;;;12.70;99.90;;;;;;5041215;28;20297;-74
2022/10/01 05:26:04;;;;;;;11.73;9.50;;;12.60;99.90;;;;;;5042460;28;20260;-72
2022/10/01 05:28:31;;;;;;;9.83;8.83;;;12.70;99.90;;;;;;5040653;28;20308;-72
2022/10/01 05:31:00;;;;;;;10.50;9.20;;;12.70;99.90;;;;;;5028440;28;20233;-72
2022/10/01 05:33:29;;;;;;;10.60;9.37;;;12.60;99.90;;;;;;5040809;28;20218;-72
2022/10/01 05:35:57;;;;;;;13.60;10.60;;;12.70;99.90;;;;;;5046846;28;20263;-71
2022/10/01 05:38:24;;;;;;;11.63;10.43;;;12.70;99.90;;;;;;5042970;28;20214;-72
2022/10/01 05:40:50;;;;;;;13.30;10.77;;;12.80;99.90;;;;;;5050106;28;20311;-72
2022/10/01 05:43:17;;;;;;;12.63;10.63;;;12.80;99.90;;;;;;5062284;28;20691;-73
2022/10/01 05:45:44;;;;;;;13.13;11.00;;;12.80;99.90;;;;;;5045732;28;20592;-72
2022/10/01 05:48:11;;;;;;;12.03;10.83;;;12.80;99.90;;;;;;5062429;28;20254;-72
2022/10/01 05:50:39;;;;;;;13.80;11.67;;;12.80;99.90;;;;;;5061225;28;20303;-72
2022/10/01 05:53:08;;;;;;;16.10;13.77;;;12.80;99.90;;;;;;5061871;28;20725;-73
2022/10/01 05:55:35;;;;;;;16.40;14.50;;;12.80;99.90;;;;;;5061573;28;20712;-72
2022/10/01 05:58:11;;;;;;;16.20;13.53;;;12.90;99.90;;;;;;5060191;28;20631;-73
2022/10/01 06:00:41;;;;;;;16.57;14.10;;;12.90;99.90;;;;;;5058668;28;20208;-73
2022/10/01 06:03:14;;;;;;;15.73;13.80;;;12.90;99.90;;;;;;5044757;28;20277;-73
2022/10/01 06:05:43;;;;;;;17.80;14.37;;;13.00;99.90;;;;;;5042838;28;20227;-73
2022/10/01 06:08:10;;;;;;;17.93;14.93;;;13.00;99.90;;;;;;5061928;28;20659;-71
2022/10/01 06:10:37;;;;;;;16.87;14.80;;;13.00;99.90;;;;;;5059821;28;20582;-73
2022/10/01 06:13:05;;;;;;;17.63;14.80;;;13.00;99.90;;;;;;5041539;28;20680;-72
2022/10/01 06:15:36;;;;;;;16.10;14.37;;;12.90;99.90;;;;;;5060537;28;20248;-75
2022/10/01 06:18:05;;;;;;;16.97;13.93;;;13.00;99.90;;;;;;5040702;28;20201;-73
2022/10/01 06:20:32;;;;;;;18.87;15.40;;;13.00;99.90;;;;;;5059039;28;20258;-74
2022/10/01 06:22:59;;;;;;;18.93;15.23;;;13.00;99.90;;;;;;5044538;28;20208;-72
2022/10/01 06:25:30;;;;;;;20.83;15.60;;;13.00;99.90;;;;;;5058290;28;20260;-73
2022/10/01 06:27:58;;;;;;;21.30;16.87;;;13.00;99.90;;;;;;5043674;28;20208;-72
2022/10/01 06:30:30;;;;;;;20.70;15.43;;;13.10;99.90;;;;;;5064637;28;20227;-72
2022/10/01 06:33:02;;;;;;;18.90;16.20;;;13.10;99.90;;;;;;5065847;28;20747;-73
2022/10/01 06:35:30;;;;;;;21.17;16.47;;;13.20;99.90;;;;;;5048380;28;20232;-74
2022/10/01 06:37:57;;;;;;;22.13;16.90;;;13.20;99.90;;;;;;5067788;28;20636;-73
2022/10/01 06:40:24;;;;;;;18.87;16.20;;;13.30;99.90;;;;;;5045496;28;20681;-72
2022/10/01 06:42:51;;;;;;;20.70;15.90;;;13.30;99.90;;;;;;5063388;28;20244;-73
2022/10/01 06:45:26;;;;;;;21.87;16.37;;;13.30;99.90;;;;;;5062499;28;20716;-73
2022/10/01 06:48:06;;;;;;;19.43;17.00;;;13.30;99.90;;;;;;5064918;28;21524;-74
2022/10/01 06:50:33;;;;;;;20.33;15.77;;;13.50;99.90;;;;;;5046404;28;20297;-72
2022/10/01 06:53:03;;;;;;;20.80;15.80;;;13.60;99.90;;;;;;5065831;28;20311;-73
2022/10/01 06:55:32;;;;;;;20.37;15.27;;;13.70;99.90;;;;;;5061066;28;20228;-73
2022/10/01 06:58:02;;;;;;;19.07;15.43;;;13.60;99.90;;;;;;5064180;28;20235;-74
2022/10/01 07:00:31;;;;;;;20.70;14.97;;;13.70;99.90;;;;;;5058509;28;20661;-74
2022/10/01 07:02:59;;;;;;;21.13;15.47;;;13.70;99.90;;;;;;5065156;28;20704;-74
2022/10/01 07:05:29;;;;;;;17.60;14.97;;;13.80;99.90;;;;;;5047265;28;20231;-73
2022/10/01 07:07:56;;;;;;;23.47;14.23;;;13.90;99.90;;;;;;5063007;28;20213;-74
2022/10/01 07:10:24;;;;;;;17.40;14.63;;;13.80;99.90;;;;;;5064823;28;20209;-73
2022/10/01 07:12:51;;;;;;;16.37;14.77;;;13.80;99.90;;;;;;5064325;28;20216;-73
2022/10/01 07:15:24;;;;;;;17.07;13.93;;;14.30;99.90;;;;;;5048823;28;20220;-74
2022/10/01 07:17:51;;;;;;;17.67;13.90;;;13.90;99.90;;;;;;5067881;28;20221;-73
2022/10/01 07:20:20;;;;;;;19.17;13.93;;;;;;;;;;5066046;28;20205;-74
2022/10/01 07:22:47;;;;;;;18.67;14.27;;;14.00;99.90;;;;;;5068595;28;20205;-74
2022/10/01 07:25:17;;;;;;;15.73;13.70;;;14.10;99.90;;;;;;5045176;28;20290;-73
2022/10/01 07:27:44;;;;;;;16.83;13.37;;;14.20;99.90;;;;;;5064965;28;20200;-73
2022/10/01 07:30:13;;;;;;;17.20;13.67;;;14.20;99.90;;;;;;5062810;28;20207;-73
2022/10/01 07:32:43;;;;;;;14.10;12.47;;;14.20;99.90;;;;;;5064285;28;20229;-73
2022/10/01 07:35:10;;;;;;;15.53;12.40;;;14.30;99.90;;;;;;5062303;28;20204;-74
2022/10/01 07:37:37;;;;;;;17.00;13.23;;;14.40;99.90;;;;;;5063553;28;20236;-73
2022/10/01 07:40:07;;;;;;;16.97;13.13;;;14.40;99.90;;;;;;5060438;28;20628;-73
2022/10/01 07:42:42;;;;;;;16.00;13.00;;;14.50;99.90;;;;;;5057035;28;20758;-73
2022/10/01 07:45:10;;;;;;;14.03;12.53;;;14.50;99.90;;;;;;5063908;28;20239;-72
2022/10/01 07:47:36;;;;;;;15.33;12.30;;;14.70;99.90;;;;;;5062692;28;20216;-72
2022/10/01 07:50:05;;;;;;;17.80;11.77;;;14.70;99.90;;;;;;5049120;28;20197;-72
2022/10/01 07:52:35;;;;;;;14.83;12.87;;;14.80;99.90;;;;;;5046491;28;20212;-72
2022/10/01 07:55:02;;;;;;;17.47;13.00;;;14.80;99.90;;;;;;5060302;28;20212;-74
2022/10/01 07:57:33;;;;;;;20.93;14.27;;;14.80;99.90;;;;;;5049493;28;20266;-74
2022/10/01 08:00:00;;;;;;;17.50;13.17;;;14.90;99.90;;;;;;5044315;28;20888;-73
2022/10/01 08:02:26;;;;;;;19.83;11.77;;;15.10;99.90;;;;;;5052834;28;20224;-71
2022/10/01 08:07:39;;;;;;;15.00;10.87;;;15.20;99.90;;;;;;5059651;28;20208;-73
2022/10/01 08:10:06;;;;;;;13.53;11.03;;;15.40;99.90;;;;;;5064792;28;20594;-74
2022/10/01 08:12:33;;;;;;;13.43;11.30;;;15.40;99.90;;;;;;5047297;28;20542;-73
2022/10/01 08:15:07;;;;;;;15.37;11.83;;;15.40;99.90;;;;;;5049382;28;20231;-73
2022/10/01 08:17:33;;;;;;;13.67;10.83;;;15.30;99.90;;;;;;5064378;28;20216;-73
2022/10/01 08:20:00;;;;;;;13.13;10.67;;;15.30;99.90;;;;;;5063947;28;20224;-72
2022/10/01 08:22:27;;;;;;;11.83;10.43;;;15.30;99.90;;;;;;5064488;28;20235;-72
2022/10/01 08:24:54;;;;;;;16.60;10.40;;;15.30;99.90;;;;;;5064467;28;20208;-73
2022/10/01 08:27:23;;;;;;;13.87;10.10;;;15.30;99.90;;;;;;5041456;28;20205;-73
2022/10/01 08:29:51;;;;;;;13.57;10.23;;;15.20;99.90;;;;;;5062729;28;20232;-75
2022/10/01 08:32:17;;;;;;;12.43;8.63;;;15.30;99.90;;;;;;5062249;28;20692;-74
2022/10/01 08:34:45;;;;;;;14.97;9.00;;;15.40;99.90;;;;;;5064214;28;20668;-72
2022/10/01 08:37:13;;;;;;;8.55;6.80;;;15.40;99.90;;;;;;5063302;28;20265;-72
2022/10/01 08:39:39;;;;;;;8.43;6.38;;;15.60;99.90;;;;;;5049663;28;20284;-74
2022/10/01 08:42:38;;;;;;;6.00;5.40;;;15.80;99.90;;;;;;5061268;28;20200;-76
2022/10/01 08:45:12;;;;;;;6.78;6.07;;;16.30;99.90;;;;;;5044695;28;20236;-73
2022/10/01 08:47:45;;;;;;;9.73;6.40;;;16.60;99.90;;;;;;5062004;28;20216;-73
2022/10/01 08:50:27;;;;;;;6.75;5.32;;;16.90;99.90;;;;;;5062265;28;20208;-74
2022/10/01 08:53:01;;;;;;;7.70;4.82;;;17.20;99.90;;;;;;5059622;28;20278;-74
2022/10/01 08:55:35;;;;;;;7.88;5.28;;;17.50;99.90;;;;;;5062220;28;20205;-71
2022/10/01 08:58:13;;;;;;;6.68;4.78;;;17.80;99.90;;;;;;5055888;28;20209;-73
2022/10/01 09:00:43;;;;;;;8.23;4.70;;;17.80;99.90;;;;;;5028504;28;20208;-72
2022/10/01 09:03:13;;;;;;;9.90;5.78;;;17.80;99.90;;;;;;5062210;28;20206;-72
2022/10/01 09:05:51;;;;;;;8.68;6.20;;;17.80;99.90;;;;;;5062891;28;20259;-73
2022/10/01 09:08:44;;;;;;;11.73;6.53;;;17.70;99.90;;;;;;5062351;28;20200;-73
2022/10/01 09:11:46;;;;;;;9.68;6.35;;;17.40;99.90;;;;;;5037891;28;20211;-74
2022/10/01 09:14:53;;;;;;;9.18;7.53;;;17.10;99.90;;;;;;5060532;28;20204;-71
2022/10/01 09:17:52;;;;;;;9.93;6.50;;;16.80;99.90;;;;;;5059370;28;20599;-73
2022/10/01 09:20:47;;;;;;;11.80;7.15;;;16.40;99.90;;;;;;5061048;28;20263;-72
2022/10/01 09:23:30;;;;;;;12.65;7.40;;;16.30;99.90;;;;;;5051189;28;20220;-72
2022/10/01 09:25:58;;;;;;;11.70;7.50;;;16.40;99.90;;;;;;5066258;28;20231;-72
2022/10/01 09:28:29;;;;;;;13.27;8.02;;;16.50;99.90;;;;;;5062466;28;20204;-73
2022/10/01 09:30:59;;;;;;;14.40;7.65;;;16.70;99.90;;;;;;5044027;28;20231;-72
2022/10/01 09:33:35;;;;;;;14.77;7.45;;;16.70;99.90;;;;;;5058854;28;20201;-72
2022/10/01 09:36:05;;;;;;;14.00;7.80;;;16.70;99.90;;;;;;5064123;28;20756;-73
2022/10/01 09:38:40;;;;;;;12.23;7.30;;;16.70;99.90;;;;;;5060586;28;20595;-72
2022/10/01 09:41:09;;;;;;;11.77;7.45;;;16.70;99.90;;;;;;5062701;28;20575;-73
2022/10/01 09:43:39;;;;;;;11.32;7.28;;;16.70;99.90;;;;;;5045254;28;20611;-72
2022/10/01 09:46:12;;;;;;;12.82;7.55;;;16.80;99.90;;;;;;5059131;28;20240;-73
2022/10/01 09:48:48;;;;;;;10.65;6.80;;;16.60;99.90;;;;;;5044739;28;20250;-73
2022/10/01 09:51:21;;;;;;;7.55;6.13;;;16.60;99.90;;;;;;5059560;28;20681;-72
2022/10/01 09:54:16;;;;;;;9.73;5.93;;;16.70;99.90;;;;;;5062755;28;20606;-74
2022/10/01 09:56:49;;;;;;;8.98;5.40;;;16.80;99.90;;;;;;5056752;28;20745;-72
2022/10/01 09:59:22;;;;;;;8.50;5.68;;;16.80;99.90;;;;;;5058832;28;20304;-73
2022/10/01 10:01:53;;;;;;;8.65;5.30;;;16.80;99.90;;;;;;5047161;28;20749;-73
2022/10/01 10:04:24;;;;;;;11.13;5.70;;;16.90;99.90;;;;;;5059006;28;20204;-73
2022/10/01 10:07:04;;;;;;;8.98;5.28;;;17.00;99.90;;;;;;5042775;28;20268;-73
2022/10/01 10:09:33;;;;;;;10.18;5.28;;;17.10;99.90;;;;;;5060408;28;20208;-72
2022/10/01 10:12:01;;;;;;;8.73;4.13;;;16.90;99.90;;;;;;5058829;28;20205;-73
2022/10/01 10:14:34;;;;;;;8.65;4.55;;;17.00;99.90;;;;;;5062515;28;20196;-72
2022/10/01 10:17:20;;;;;;;9.10;4.35;;;17.00;99.90;;;;;;5054487;28;20230;-73
2022/10/01 10:19:50;;;;;;;6.93;4.20;;;17.10;99.90;;;;;;5061151;28;20681;-70
2022/10/01 10:22:23;;;;;;;8.70;4.13;;;17.10;99.90;;;;;;5063114;28;20200;-72
2022/10/01 10:24:57;;;;;;;10.55;4.25;;;17.30;99.90;;;;;;5057265;28;20681;-73
2022/10/01 10:27:29;;;;;;;10.02;3.53;;;17.60;99.90;;;;;;5060251;28;20295;-72
2022/10/01 10:30:16;;;;;;;8.75;3.45;;;17.60;99.90;;;;;;5041350;28;20208;-71
2022/10/01 10:32:45;;;;;;;11.85;3.20;;;17.70;99.90;;;;;;5057040;28;20233;-74
2022/10/01 10:35:25;;;;;;;9.80;3.10;;;17.70;99.90;;;;;;5062658;28;20197;-71
2022/10/01 10:37:54;;;;;;;11.70;3.47;;;17.60;99.90;;;;;;5060921;28;20765;-71
2022/10/01 10:40:24;;;;;;;10.50;2.50;;;17.30;99.90;;;;;;5059435;28;20307;-71
2022/10/01 10:42:57;;;;;;;10.63;4.88;;;17.20;99.90;;;;;;5042229;28;20207;-73
2022/10/01 10:45:42;;;;;;;8.85;3.70;;;17.00;99.90;;;;;;5058077;28;20209;-71
2022/10/01 10:48:15;;;;;;;16.75;3.90;;;16.80;99.90;;;;;;5061238;28;20199;-71
2022/10/01 10:50:45;;;;;;;10.75;3.80;;;16.70;99.90;;;;;;5063021;28;20236;-71
2022/10/01 10:53:19;;;;;;;10.55;4.00;;;16.60;99.90;;;;;;5065026;28;20236;-70
2022/10/01 10:55:55;;;;;;;9.82;3.15;;;16.60;99.90;;;;;;5064405;28;20196;-72
2022/10/01 10:58:32;;;;;;;12.27;2.85;;;16.60;99.90;;;;;;5063835;28;20226;-73
2022/10/01 11:01:10;;;;;;;11.57;2.47;;;16.70;99.90;;;;;;5060357;28;20407;-70
2022/10/01 11:03:43;;;;;;;8.48;2.97;;;16.80;99.90;;;;;;5058619;28;20730;-73
2022/10/01 11:06:13;;;;;;;9.85;3.20;;;16.90;99.90;;;;;;5044100;28;20233;-71
2022/10/01 11:08:41;;;;;;;11.07;2.45;;;17.10;99.90;;;;;;5047150;28;20233;-71
2022/10/01 11:11:14;;;;;;;7.53;2.20;;;17.30;99.90;;;;;;5058642;28;20217;-73
2022/10/01 11:13:59;;;;;;;8.88;2.80;;;17.40;99.90;;;;;;5061175;28;20251;-72
2022/10/01 11:16:44;;;;;;;12.65;2.53;;;17.60;99.90;;;;;;5063733;28;20239;-71
2022/10/01 11:19:39;;;;;;;8.45;2.85;;;17.80;99.90;;;;;;5059939;28;20698;-72
2022/10/01 11:22:21;;;;;;;15.48;2.55;;;18.10;99.90;;;;;;5065780;28;20212;-72
2022/10/01 11:25:08;;;;;;;6.63;2.63;;;;;;;;;;5064189;28;20378;-71
2022/10/01 11:27:58;;;;;;;11.15;2.15;;;18.50;99.90;;;;;;5069620;28;20238;-71
2022/10/01 11:30:39;;;;;;;6.97;1.90;;;18.80;99.90;;;;;;5066957;28;20200;-72
2022/10/01 11:33:31;;;;;;;12.35;2.00;;;19.00;99.90;;;;;;5062234;28;20656;-71
2022/10/01 11:36:13;;;;;;;7.32;1.95;;;19.10;99.90;;;;;;5058472;28;20318;-71
2022/10/01 11:38:57;;;;;;;8.45;2.20;;;19.10;99.90;;;;;;5060581;28;20648;-71
2022/10/01 11:41:30;;;;;;;12.23;2.30;;;19.20;99.90;;;;;;5047456;28;20196;-72
2022/10/01 11:44:14;;;;;;;10.43;2.33;;;19.20;99.90;;;;;;5064669;28;20201;-72
2022/10/01 11:47:03;;;;;;;11.77;2.25;;;19.20;99.90;;;;;;5064062;28;20232;-71
2022/10/01 11:49:51;;;;;;;6.30;2.25;;;19.20;99.90;;;;;;5061889;28;20228;-72
2022/10/01 11:52:39;;;;;;;9.82;2.28;;;19.10;99.90;;;;;;5056468;28;20213;-72
2022/10/01 11:58:59;;;;;;;12.20;2.63;;;19.00;99.90;;;;;;5058313;28;20299;-72
2022/10/01 12:02:07;;;;;;;6.85;2.00;;;18.90;99.90;;;;;;5042672;28;20228;-74
2022/10/01 12:04:39;;;;;;;7.93;1.80;;;18.80;99.90;;;;;;5057271;28;20212;-72
2022/10/01 12:07:22;;;;;;;8.55;2.75;;;18.90;99.90;;;;;;5061762;28;20229;-72
2022/10/01 12:10:30;;;;;;;10.95;2.85;;;19.10;99.90;;;;;;5063213;28;20196;-72
2022/10/01 12:13:06;;;;;;;7.50;1.90;;;19.30;99.90;;;;;;5048914;28;20599;-71
2022/10/01 12:15:43;;;;;;;12.13;2.42;;;19.40;99.90;;;;;;5061678;28;20714;-71
2022/10/01 12:18:19;;;;;;;7.68;2.10;;;19.40;99.90;;;;;;5062310;28;20212;-72
2022/10/01 12:20:53;;;;;;;8.20;1.98;;;19.40;99.90;;;;;;5061889;28;20681;-72
2022/10/01 12:23:31;;;;;;;10.82;2.00;;;19.60;99.90;;;;;;5058225;28;20209;-71
2022/10/01 12:26:19;;;;;;;4.88;1.95;;;19.80;99.90;;;;;;5062827;28;20206;-71
2022/10/01 12:29:11;;;;;;;10.18;2.25;;;20.00;99.90;;;;;;5042948;28;20201;-73
2022/10/01 12:31:50;;;;;;;8.73;2.03;;;20.30;99.90;;;;;;5062701;28;20212;-72
2022/10/01 12:34:26;;;;;;;6.35;2.00;;;20.40;99.90;;;;;;5060102;28;20691;-72
2022/10/01 12:37:24;;;;;;;7.90;1.77;;;20.50;99.90;;;;;;5053588;28;20716;-72
2022/10/01 12:39:56;;;;;;;4.90;1.98;;;20.50;99.90;;;;;;5055958;28;20336;-71
2022/10/01 12:42:57;;;;;;;7.68;1.77;;;20.60;99.90;;;;;;5058534;28;20286;-72
2022/10/01 12:45:57;;;;;;;5.78;1.88;;;20.60;99.90;;;;;;5025571;28;20192;-72
2022/10/01 12:49:11;;;;;;;8.50;1.95;;;20.20;99.90;;;;;;5062077;28;20710;-72
2022/10/01 12:51:55;;;;;;;6.82;1.90;;;20.20;99.90;;;;;;5039704;28;20508;-72
2022/10/01 12:54:59;;;;;;;10.45;2.05;;;20.10;99.90;;;;;;5039073;28;20252;-72
2022/10/01 12:57:52;;;;;;;7.25;1.80;;;20.20;99.90;;;;;;5054652;28;20299;-73
2022/10/01 13:00:24;;;;;;;9.07;1.67;;;20.10;99.90;;;;;;5046742;28;20278;-73
2022/10/01 13:03:17;;;;;;;11.20;2.35;;;20.00;99.90;;;;;;5057975;28;20248;-73
2022/10/01 13:06:10;;;;;;;6.68;1.45;;;19.90;99.90;;;;;;5058524;28;20680;-72
2022/10/01 13:09:05;;;;;;;6.65;1.60;;;20.00;99.90;;;;;;5062182;28;20291;-73
2022/10/01 13:12:00;;;;;;;14.75;2.20;;;20.20;99.90;;;;;;5060481;28;20287;-72
2022/10/01 13:14:28;;;;;;;7.07;1.92;;;20.20;99.90;;;;;;5061139;28;20245;-72
2022/10/01 13:17:01;;;;;;;6.25;2.10;;;20.40;99.90;;;;;;5043694;28;20641;-72